Time,TemperatureF,DewpointF,PressureIn,WindDirection,WindDirectionDegrees,WindSpeedMPH,WindSpeedGustMPH,Humidity,HourlyPrecipIn,Conditions,Clouds,dailyrainin,SoftwareType,DateUTC
2013-01-28 00:01:00,31.1,28.0,29.98,South,180,0.0,0.0,88,0.00,CLR,,0.00,WeatherDisplay:10.37,2013-01-28 05:01:00,
2013-01-28 00:03:00,31.1,28.0,29.97,South,180,0.0,0.0,88,0.00,CLR,,0.00,WeatherDisplay:10.37,2013-01-28 05:03:00,
2013-01-28 00:04:00,31.1,28.0,29.97,South,180,0.0,0.0,88,0.00,CLR,,0.00,WeatherDisplay:10.37,2013-01-28 05:04:00,
2013-01-28 00:09:00,31.5,28.6,29.98,South,180,0.0,0.0,89,0.00,CLR,,0.00,WeatherDisplay:10.37,2013-01-28 05:09:00,
2013-01-28 00:14:00,31.6,28.8,29.99,South,180,0.0,0.0,89,0.00,CLR,,0.00,WeatherDisplay:10.37,2013-01-28 05:14:00,
2013-01-28 00:19:00,31.5,28.6,29.97,South,180,0.0,0.0,89,0.00,CLR,,0.00,WeatherDisplay:10.37,2013-01-28 05:19:00,
2013-01-28 00:24:00,31.6,28.8,29.97,South,180,0.0,0.0,89,0.00,CLR,,0.00,WeatherDisplay:10.37,2013-01-28 05:24:00,
2013-01-28 00:29:00,31.6,28.8,29.95,South,180,0.0,0.0,89,0.00,CLR,,0.00,WeatherDisplay:10.37,2013-01-28 05:29:00,
2013-01-28 00:34:00,31.8,28.9,29.95,South,180,0.0,0.0,89,0.00,CLR,,0.00,WeatherDisplay:10.37,2013-01-28 05:34:00,
2013-01-28 00:39:00,31.8,28.9,29.95,South,180,0.0,0.0,89,0.00,CLR,,0.00,WeatherDisplay:10.37,2013-01-28 05:39:00,
2013-01-28 00:44:00,31.8,28.9,29.94,South,180,0.0,0.0,89,0.00,CLR,,0.00,WeatherDisplay:10.37,2013-01-28 05:44:00,
2013-01-28 00:49:00,31.8,28.9,29.94,South,180,0.0,0.0,89,0.00,CLR,,0.00,WeatherDisplay:10.37,2013-01-28 05:49:00,
2013-01-28 00:54:00,31.8,28.9,29.94,South,180,0.0,0.0,89,0.00,CLR,,0.00,WeatherDisplay:10.37,2013-01-28 05:54:00,
2013-01-28 00:59:00,31.8,28.9,29.93,South,180,0.0,0.0,89,0.00,CLR,,0.00,WeatherDisplay:10.37,2013-01-28 05:59:00,
2013-01-28 01:04:00,31.8,28.9,29.91,South,180,0.0,0.0,89,0.00,CLR,,0.00,WeatherDisplay:10.37,2013-01-28 06:04:00,
2013-01-28 01:09:00,32.0,29.4,29.91,South,180,0.0,0.0,90,0.00,CLR,,0.00,WeatherDisplay:10.37,2013-01-28 06:09:00,
2013-01-28 01:14:00,32.0,29.4,29.91,South,180,0.0,0.0,90,0.00,CLR,,0.00,WeatherDisplay:10.37,2013-01-28 06:14:00,
2013-01-28 01:19:00,32.0,29.4,29.92,South,180,0.0,0.0,90,0.00,CLR,,0.00,WeatherDisplay:10.37,2013-01-28 06:19:00,
2013-01-28 01:24:00,32.2,29.6,29.91,South,180,0.0,0.0,90,0.00,CLR,,0.00,WeatherDisplay:10.37,2013-01-28 06:24:00,
2013-01-28 01:29:00,32.2,29.6,29.91,South,180,0.0,0.0,90,0.00,CLR,,0.00,WeatherDisplay:10.37,2013-01-28 06:29:00,
2013-01-28 01:34:00,32.4,29.8,29.90,South,180,0.0,0.0,90,0.00,CLR,,0.00,WeatherDisplay:10.37,2013-01-28 06:34:00,
2013-01-28 01:39:00,32.5,29.9,29.91,South,180,0.0,0.0,90,0.00,CLR,,0.00,WeatherDisplay:10.37,2013-01-28 06:39:00,
2013-01-28 01:44:00,32.5,30.2,29.90,South,180,0.0,0.0,91,0.00,CLR,,0.00,WeatherDisplay:10.37,2013-01-28 06:44:00,
2013-01-28 01:49:00,32.5,30.2,29.91,South,180,0.0,0.0,91,0.00,CLR,,0.00,WeatherDisplay:10.37,2013-01-28 06:49:00,
2013-01-28 01:54:00,32.7,30.4,29.89,South,180,0.0,0.0,91,0.00,CLR,,0.00,WeatherDisplay:10.37,2013-01-28 06:54:00,
2013-01-28 01:59:00,32.7,30.4,29.90,South,180,0.0,0.0,91,0.00,CLR,,0.00,WeatherDisplay:10.37,2013-01-28 06:59:00,
2013-01-28 02:04:00,32.7,30.4,29.89,South,180,0.0,0.0,91,0.00,CLR,,0.00,WeatherDisplay:10.37,2013-01-28 07:04:00,
2013-01-28 02:09:00,32.9,30.6,29.90,South,180,0.0,0.0,91,0.00,CLR,,0.00,WeatherDisplay:10.37,2013-01-28 07:09:00,
2013-01-28 02:14:00,32.9,30.6,29.90,South,180,0.0,0.0,91,0.00,CLR,,0.00,WeatherDisplay:10.37,2013-01-28 07:14:00,
2013-01-28 02:19:00,32.9,30.6,29.90,South,180,0.0,0.0,91,0.00,CLR,,0.00,WeatherDisplay:10.37,2013-01-28 07:19:00,
2013-01-28 02:24:00,33.1,30.7,29.89,South,180,0.0,0.0,91,0.00,CLR,,0.00,WeatherDisplay:10.37,2013-01-28 07:24:00,
2013-01-28 02:29:00,33.1,30.7,29.89,South,180,0.0,0.0,91,0.00,CLR,,0.00,WeatherDisplay:10.37,2013-01-28 07:29:00,
2013-01-28 02:34:00,33.1,30.7,29.90,South,180,0.0,0.0,91,0.00,CLR,,0.00,WeatherDisplay:10.37,2013-01-28 07:34:00,
2013-01-28 02:39:00,33.1,31.0,29.90,South,180,0.0,0.0,92,0.00,CLR,,0.00,WeatherDisplay:10.37,2013-01-28 07:39:00,
2013-01-28 02:44:00,33.1,31.0,29.89,South,180,0.0,0.0,92,0.00,CLR,,0.00,WeatherDisplay:10.37,2013-01-28 07:44:00,
2013-01-28 02:49:00,33.1,31.0,29.88,South,180,0.0,0.0,92,0.00,CLR,,0.00,WeatherDisplay:10.37,2013-01-28 07:49:00,
2013-01-28 02:54:00,33.1,31.0,29.88,South,180,0.0,0.0,92,0.00,CLR,,0.00,WeatherDisplay:10.37,2013-01-28 07:54:00,
2013-01-28 02:59:00,33.1,31.0,29.88,South,180,0.0,0.0,92,0.00,CLR,,0.00,WeatherDisplay:10.37,2013-01-28 07:59:00,
2013-01-28 03:04:00,33.1,31.0,29.87,South,180,0.0,0.0,92,0.00,CLR,,0.00,WeatherDisplay:10.37,2013-01-28 08:04:00,
2013-01-28 03:09:00,33.3,31.2,29.88,South,180,0.0,0.0,92,0.00,CLR,,0.00,WeatherDisplay:10.37,2013-01-28 08:09:00,
2013-01-28 03:14:00,33.3,31.2,29.87,South,180,0.0,0.0,92,0.00,CLR,,0.00,WeatherDisplay:10.37,2013-01-28 08:14:00,
2013-01-28 03:19:00,33.3,31.5,29.87,South,180,0.0,0.0,93,0.00,CLR,,0.00,WeatherDisplay:10.37,2013-01-28 08:19:00,
2013-01-28 03:24:00,33.3,31.5,29.85,South,180,0.0,0.0,93,0.00,CLR,,0.00,WeatherDisplay:10.37,2013-01-28 08:24:00,
2013-01-28 03:29:00,33.4,31.6,29.85,South,180,0.0,0.0,93,0.00,CLR,,0.00,WeatherDisplay:10.37,2013-01-28 08:29:00,
2013-01-28 03:34:00,33.4,31.6,29.85,South,180,0.0,0.0,93,0.00,CLR,,0.00,WeatherDisplay:10.37,2013-01-28 08:34:00,
2013-01-28 03:39:00,33.6,31.8,29.85,South,180,0.0,0.0,93,0.00,CLR,,0.00,WeatherDisplay:10.37,2013-01-28 08:39:00,
2013-01-28 03:44:00,33.6,31.8,29.84,South,180,0.0,0.0,93,0.00,CLR,,0.00,WeatherDisplay:10.37,2013-01-28 08:44:00,
2013-01-28 03:49:00,33.8,32.0,29.84,South,180,0.0,0.0,93,0.00,CLR,,0.00,WeatherDisplay:10.37,2013-01-28 08:49:00,
2013-01-28 03:54:00,33.8,32.3,29.84,South,180,0.0,0.0,94,0.00,CLR,,0.00,WeatherDisplay:10.37,2013-01-28 08:54:00,
2013-01-28 03:59:00,33.8,32.3,29.83,South,180,0.0,0.0,94,0.00,CLR,,0.00,WeatherDisplay:10.37,2013-01-28 08:59:00,
2013-01-28 04:04:00,34.0,32.4,29.83,South,180,0.0,0.0,94,0.00,CLR,,0.00,WeatherDisplay:10.37,2013-01-28 09:04:00,
2013-01-28 04:09:00,34.0,32.4,29.83,South,180,0.0,0.0,94,0.00,CLR,,0.00,WeatherDisplay:10.37,2013-01-28 09:09:00,
2013-01-28 04:15:00,34.0,32.4,29.82,South,180,0.0,0.0,94,0.00,CLR,,0.00,WeatherDisplay:10.37,2013-01-28 09:15:00,
2013-01-28 04:20:00,34.2,32.6,29.82,South,180,0.0,0.0,94,0.00,CLR,,0.00,WeatherDisplay:10.37,2013-01-28 09:20:00,
2013-01-28 04:25:00,34.2,32.9,29.82,South,180,0.0,0.0,95,0.00,CLR,,0.00,WeatherDisplay:10.37,2013-01-28 09:25:00,
2013-01-28 04:30:00,34.2,32.9,29.82,South,180,0.0,0.0,95,0.00,CLR,,0.00,WeatherDisplay:10.37,2013-01-28 09:30:00,
2013-01-28 04:35:00,34.3,33.1,29.81,South,180,0.0,0.0,95,0.00,CLR,,0.00,WeatherDisplay:10.37,2013-01-28 09:35:00,
2013-01-28 04:40:00,34.3,33.1,29.81,South,180,0.0,0.0,95,0.00,CLR,,0.00,WeatherDisplay:10.37,2013-01-28 09:40:00,
2013-01-28 04:45:00,34.3,33.1,29.81,South,180,0.0,0.0,95,0.00,CLR,,0.00,WeatherDisplay:10.37,2013-01-28 09:45:00,
2013-01-28 04:50:00,34.5,33.2,29.81,South,180,0.0,0.0,95,0.00,CLR,,0.00,WeatherDisplay:10.37,2013-01-28 09:50:00,
2013-01-28 04:55:00,34.5,33.2,29.81,South,180,0.0,0.0,95,0.00,CLR,,0.00,WeatherDisplay:10.37,2013-01-28 09:55:00,
2013-01-28 05:00:00,34.5,33.2,29.81,South,180,0.0,0.0,95,0.00,CLR,,0.00,WeatherDisplay:10.37,2013-01-28 10:00:00,
2013-01-28 05:05:00,34.5,33.2,29.81,South,180,0.0,0.0,95,0.00,CLR,,0.00,WeatherDisplay:10.37,2013-01-28 10:05:00,
2013-01-28 05:10:00,34.7,33.4,29.80,South,180,0.0,0.0,95,0.00,CLR,,0.00,WeatherDisplay:10.37,2013-01-28 10:10:00,
2013-01-28 05:15:00,34.7,33.7,29.81,South,180,0.0,0.0,96,0.00,CLR,,0.00,WeatherDisplay:10.37,2013-01-28 10:15:00,
2013-01-28 05:20:00,34.7,33.7,29.80,South,180,0.0,0.0,96,0.00,CLR,,0.00,WeatherDisplay:10.37,2013-01-28 10:20:00,
2013-01-28 05:25:00,34.7,33.7,29.80,South,180,0.0,0.0,96,0.00,CLR,,0.00,WeatherDisplay:10.37,2013-01-28 10:25:00,
2013-01-28 05:30:00,34.7,33.7,29.80,South,180,0.0,0.0,96,0.00,CLR,,0.00,WeatherDisplay:10.37,2013-01-28 10:30:00,
2013-01-28 05:35:00,34.9,33.9,29.81,South,180,0.0,0.0,96,0.00,CLR,,0.00,WeatherDisplay:10.37,2013-01-28 10:35:00,
2013-01-28 05:40:00,34.9,33.9,29.80,South,180,0.0,0.0,96,0.00,CLR,,0.00,WeatherDisplay:10.37,2013-01-28 10:40:00,
2013-01-28 05:45:00,35.1,34.0,29.79,South,180,0.0,0.0,96,0.00,CLR,,0.00,WeatherDisplay:10.37,2013-01-28 10:45:00,
2013-01-28 05:50:00,35.1,34.0,29.79,South,180,0.0,0.0,96,0.00,CLR,,0.00,WeatherDisplay:10.37,2013-01-28 10:50:00,
2013-01-28 05:55:00,35.2,34.2,29.79,South,180,0.0,0.0,96,0.00,CLR,,0.00,WeatherDisplay:10.37,2013-01-28 10:55:00,
2013-01-28 06:00:00,35.4,34.4,29.78,South,180,0.0,0.0,96,0.00,CLR,,0.00,WeatherDisplay:10.37,2013-01-28 11:00:00,
2013-01-28 06:05:00,35.4,34.4,29.78,South,180,0.0,0.0,96,0.00,CLR,,0.00,WeatherDisplay:10.37,2013-01-28 11:05:00,
2013-01-28 06:10:00,35.6,34.6,29.77,South,180,0.0,0.0,96,0.00,CLR,,0.00,WeatherDisplay:10.37,2013-01-28 11:10:00,
2013-01-28 06:15:00,35.6,34.8,29.77,SW,225,11.5,11.5,97,0.00,CLR,,0.00,WeatherDisplay:10.37,2013-01-28 11:15:00,
2013-01-28 06:20:00,35.6,34.8,29.77,SW,225,6.9,0.0,97,0.00,CLR,,0.00,WeatherDisplay:10.37,2013-01-28 11:20:00,
2013-01-28 06:25:00,35.6,34.8,29.78,SW,225,8.1,8.1,97,0.00,CLR,,0.00,WeatherDisplay:10.37,2013-01-28 11:25:00,
2013-01-28 06:30:00,35.6,34.8,29.77,SSW,202,13.8,13.8,97,0.01,RA,,0.01,WeatherDisplay:10.37,2013-01-28 11:30:00,
2013-01-28 06:35:00,35.6,34.8,29.77,SSW,202,9.2,9.2,97,0.01,,,0.01,WeatherDisplay:10.37,2013-01-28 11:35:00,
2013-01-28 06:40:00,35.6,34.8,29.77,SSW,202,10.4,10.4,97,0.02,RA,,0.02,WeatherDisplay:10.37,2013-01-28 11:40:00,
2013-01-28 06:45:00,35.8,35.0,29.76,South,180,12.7,12.7,97,0.02,RA,,0.02,WeatherDisplay:10.37,2013-01-28 11:45:00,
2013-01-28 06:50:00,35.6,34.8,29.77,South,180,9.2,9.2,97,0.04,RA,,0.04,WeatherDisplay:10.37,2013-01-28 11:50:00,
2013-01-28 06:55:00,35.6,34.8,29.77,South,180,12.7,12.7,97,0.04,RA,,0.04,WeatherDisplay:10.37,2013-01-28 11:55:00,
2013-01-28 07:00:00,35.8,35.0,29.76,SSW,202,12.7,12.7,97,0.05,RA,,0.05,WeatherDisplay:10.37,2013-01-28 12:00:00,
2013-01-28 07:05:00,35.8,35.0,29.76,SSW,202,12.7,12.7,97,0.05,RA,,0.05,WeatherDisplay:10.37,2013-01-28 12:05:00,
2013-01-28 07:10:00,36.0,35.2,29.76,SSW,202,15.0,15.0,97,0.06,RA,,0.06,WeatherDisplay:10.37,2013-01-28 12:10:00,
2013-01-28 07:15:00,36.1,35.4,29.76,SW,225,10.4,10.4,97,0.06,RA,,0.06,WeatherDisplay:10.37,2013-01-28 12:15:00,
2013-01-28 07:20:00,36.1,35.4,29.75,South,180,12.7,12.7,97,0.07,RA,,0.07,WeatherDisplay:10.37,2013-01-28 12:20:00,
2013-01-28 07:25:00,36.1,35.4,29.76,WSW,248,12.7,12.7,97,0.07,RA,,0.08,WeatherDisplay:10.37,2013-01-28 12:25:00,
2013-01-28 07:30:00,36.1,35.6,29.75,SW,225,12.7,12.7,98,0.07,RA,,0.08,WeatherDisplay:10.37,2013-01-28 12:30:00,
2013-01-28 07:35:00,36.1,35.6,29.75,SW,225,10.4,10.4,98,0.08,RA,,0.09,WeatherDisplay:10.37,2013-01-28 12:35:00,
2013-01-28 07:40:00,36.3,35.8,29.76,SW,225,15.0,15.0,98,0.07,RA,,0.09,WeatherDisplay:10.37,2013-01-28 12:40:00,
2013-01-28 07:45:00,36.6,36.1,29.75,SSW,207,7.0,16.0,98,0.00,RA,,0.11,WeatherDisplay:10.37,2013-01-28 12:45:00,
2013-01-28 07:50:00,36.5,36.0,29.75,South,180,8.1,8.1,98,0.07,RA,,0.12,WeatherDisplay:10.37,2013-01-28 12:50:00,
2013-01-28 07:55:00,36.5,36.0,29.75,South,180,10.4,10.4,98,0.08,RA,,0.12,WeatherDisplay:10.37,2013-01-28 12:55:00,
2013-01-28 08:00:00,36.5,36.0,29.75,SW,225,11.5,11.5,98,0.08,RA,,0.13,WeatherDisplay:10.37,2013-01-28 13:00:00,
2013-01-28 08:05:00,36.5,36.0,29.74,SW,225,10.4,10.4,98,0.08,RA,,0.13,WeatherDisplay:10.37,2013-01-28 13:05:00,
2013-01-28 08:10:00,36.5,36.0,29.74,SW,225,8.1,8.1,98,0.07,,,0.13,WeatherDisplay:10.37,2013-01-28 13:10:00,
2013-01-28 08:15:00,36.5,36.0,29.74,South,180,8.1,8.1,98,0.08,RA,,0.14,WeatherDisplay:10.37,2013-01-28 13:15:00,
2013-01-28 08:20:00,36.3,35.8,29.74,South,180,8.1,8.1,98,0.07,RA,,0.14,WeatherDisplay:10.37,2013-01-28 13:20:00,
2013-01-28 08:25:00,36.7,36.2,29.74,South,180,9.2,9.2,98,0.07,RA,,0.15,WeatherDisplay:10.37,2013-01-28 13:25:00,
2013-01-28 08:30:00,36.7,36.2,29.74,South,180,8.1,8.1,98,0.07,RA,,0.15,WeatherDisplay:10.37,2013-01-28 13:30:00,
2013-01-28 08:35:00,36.9,36.3,29.74,South,180,8.1,8.1,98,0.06,CLR,,0.15,WeatherDisplay:10.37,2013-01-28 13:35:00,
2013-01-28 08:40:00,37.0,36.8,29.74,SW,225,12.7,12.7,99,0.07,RA,,0.17,WeatherDisplay:10.37,2013-01-28 13:40:00,
2013-01-28 08:45:00,37.4,37.1,29.73,South,180,11.5,11.5,99,0.06,RA,,0.17,WeatherDisplay:10.37,2013-01-28 13:45:00,
2013-01-28 08:50:00,37.6,37.3,29.73,SSW,202,10.4,10.4,99,0.05,CLR,,0.17,WeatherDisplay:10.37,2013-01-28 13:50:00,
2013-01-28 08:55:00,37.8,37.5,29.73,SW,225,12.7,12.7,99,0.05,CLR,,0.17,WeatherDisplay:10.37,2013-01-28 13:55:00,
2013-01-28 09:00:00,38.1,37.9,29.73,SW,225,12.7,12.7,99,0.04,CLR,,0.17,WeatherDisplay:10.37,2013-01-28 14:00:00,
2013-01-28 09:05:00,38.1,37.9,29.73,SW,225,12.7,12.7,99,0.04,CLR,,0.17,WeatherDisplay:10.37,2013-01-28 14:05:00,
2013-01-28 09:10:00,38.5,38.2,29.74,South,180,10.4,10.4,99,0.04,CLR,,0.17,WeatherDisplay:10.37,2013-01-28 14:10:00,
2013-01-28 09:15:00,38.5,31.9,29.74,SSW,202,12.7,12.7,77,0.02,CLR,,0.17,WeatherDisplay:10.37,2013-01-28 14:15:00,
2013-01-28 09:20:00,38.7,32.7,29.73,SSW,202,10.4,10.4,79,0.02,CLR,,0.17,WeatherDisplay:10.37,2013-01-28 14:20:00,
2013-01-28 09:25:00,38.8,33.2,29.73,SW,225,12.7,12.7,80,0.01,CLR,,0.17,WeatherDisplay:10.37,2013-01-28 14:25:00,
2013-01-28 09:30:00,39.0,33.4,29.73,SW,225,12.7,12.7,80,0.01,CLR,,0.17,WeatherDisplay:10.37,2013-01-28 14:30:00,
2013-01-28 09:35:00,39.0,33.4,29.73,SSW,202,12.7,12.7,80,0.01,CLR,,0.17,WeatherDisplay:10.37,2013-01-28 14:35:00,
2013-01-28 09:40:00,39.2,33.5,29.73,SW,225,10.4,10.4,80,0.00,CLR,,0.17,WeatherDisplay:10.37,2013-01-28 14:40:00,
2013-01-28 09:45:00,39.2,33.5,29.73,SW,225,11.5,11.5,80,0.00,CLR,,0.17,WeatherDisplay:10.37,2013-01-28 14:45:00,
2013-01-28 09:50:00,39.2,33.5,29.73,SW,225,13.8,13.8,80,0.00,CLR,,0.17,WeatherDisplay:10.37,2013-01-28 14:50:00,
2013-01-28 09:55:00,39.4,34.0,29.73,SW,225,11.5,11.5,81,0.00,CLR,,0.17,WeatherDisplay:10.37,2013-01-28 14:55:00,
2013-01-28 10:00:00,39.6,34.2,29.73,SW,225,10.4,10.4,81,0.00,CLR,,0.17,WeatherDisplay:10.37,2013-01-28 15:00:00,
2013-01-28 10:05:00,39.6,34.2,29.73,SW,225,10.4,10.4,81,0.00,CLR,,0.17,WeatherDisplay:10.37,2013-01-28 15:05:00,
2013-01-28 10:10:00,39.7,34.4,29.73,WSW,248,10.4,10.4,81,0.00,CLR,,0.17,WeatherDisplay:10.37,2013-01-28 15:10:00,
2013-01-28 10:15:00,39.9,34.6,29.73,West,270,11.5,11.5,81,0.00,CLR,,0.17,WeatherDisplay:10.37,2013-01-28 15:15:00,
2013-01-28 10:20:00,40.1,34.7,29.73,SW,225,10.4,10.4,81,0.00,CLR,,0.17,WeatherDisplay:10.37,2013-01-28 15:20:00,
2013-01-28 10:26:00,40.3,34.9,29.73,West,270,10.4,10.4,81,0.00,CLR,,0.17,WeatherDisplay:10.37,2013-01-28 15:26:00,
2013-01-28 10:31:00,40.6,35.3,29.73,SW,225,12.7,12.7,81,0.00,CLR,,0.17,WeatherDisplay:10.37,2013-01-28 15:31:00,
2013-01-28 10:36:00,41.0,35.6,29.73,SW,225,10.4,10.4,81,0.00,CLR,,0.17,WeatherDisplay:10.37,2013-01-28 15:36:00,
2013-01-28 10:41:00,41.4,36.0,29.73,SSW,202,12.7,12.7,81,0.00,CLR,,0.17,WeatherDisplay:10.37,2013-01-28 15:41:00,
2013-01-28 10:46:00,41.9,36.5,29.73,SW,225,11.5,11.5,81,0.01,RA,,0.18,WeatherDisplay:10.37,2013-01-28 15:46:00,
2013-01-28 10:51:00,42.3,36.5,29.73,SW,225,15.0,15.0,80,0.01,RA,,0.18,WeatherDisplay:10.37,2013-01-28 15:51:00,
2013-01-28 10:56:00,42.6,36.6,29.74,SW,225,11.5,11.5,79,0.01,CLR,,0.18,WeatherDisplay:10.37,2013-01-28 15:56:00,
2013-01-28 11:01:00,42.8,36.7,29.74,SW,225,15.0,15.0,79,0.01,CLR,,0.18,WeatherDisplay:10.37,2013-01-28 16:01:00,
2013-01-28 11:06:00,42.8,36.7,29.74,SW,225,15.0,15.0,79,0.01,CLR,,0.18,WeatherDisplay:10.37,2013-01-28 16:06:00,
2013-01-28 11:11:00,43.2,37.4,29.74,WSW,248,13.8,13.8,80,0.01,CLR,,0.18,WeatherDisplay:10.37,2013-01-28 16:11:00,
2013-01-28 11:16:00,43.3,37.6,29.74,SW,225,15.0,15.0,80,0.01,CLR,,0.18,WeatherDisplay:10.37,2013-01-28 16:16:00,
2013-01-28 11:21:00,43.3,37.3,29.74,WSW,248,15.0,15.0,79,0.01,CLR,,0.18,WeatherDisplay:10.37,2013-01-28 16:21:00,
2013-01-28 11:26:00,43.3,37.3,29.74,SW,225,15.0,15.0,79,0.01,CLR,,0.18,WeatherDisplay:10.37,2013-01-28 16:26:00,
2013-01-28 11:31:00,43.3,37.6,29.73,WSW,248,15.0,15.0,80,0.01,CLR,,0.18,WeatherDisplay:10.37,2013-01-28 16:31:00,
2013-01-28 11:36:00,43.5,37.8,29.73,SSW,202,16.1,16.1,80,0.01,CLR,,0.18,WeatherDisplay:10.37,2013-01-28 16:36:00,
2013-01-28 11:41:00,43.7,37.9,29.73,SW,225,16.1,16.1,80,0.01,CLR,,0.18,WeatherDisplay:10.37,2013-01-28 16:41:00,
2013-01-28 11:46:00,43.7,37.9,29.74,SW,225,12.7,12.7,80,0.00,CLR,,0.18,WeatherDisplay:10.37,2013-01-28 16:46:00,
2013-01-28 11:51:00,43.7,37.9,29.73,NW,315,11.5,11.5,80,0.00,CLR,,0.18,WeatherDisplay:10.37,2013-01-28 16:51:00,
2013-01-28 11:56:00,43.9,38.1,29.73,SW,225,17.3,17.3,80,0.00,CLR,,0.18,WeatherDisplay:10.37,2013-01-28 16:56:00,
2013-01-28 12:01:00,43.9,38.1,29.73,SW,225,15.0,15.0,80,0.00,CLR,,0.18,WeatherDisplay:10.37,2013-01-28 17:01:00,
2013-01-28 12:06:00,43.9,38.1,29.73,SW,225,15.0,15.0,80,0.00,CLR,,0.18,WeatherDisplay:10.37,2013-01-28 17:06:00,
2013-01-28 12:11:00,44.1,38.9,29.73,WSW,248,15.0,15.0,82,0.00,CLR,,0.18,WeatherDisplay:10.37,2013-01-28 17:11:00,
2013-01-28 12:16:00,44.1,38.9,29.73,WSW,248,17.3,17.3,82,0.00,CLR,,0.18,WeatherDisplay:10.37,2013-01-28 17:16:00,
2013-01-28 12:21:00,44.2,39.1,29.73,SW,225,13.8,13.8,82,0.00,CLR,,0.18,WeatherDisplay:10.37,2013-01-28 17:21:00,
2013-01-28 12:26:00,44.2,39.1,29.72,WSW,248,12.7,12.7,82,0.00,CLR,,0.18,WeatherDisplay:10.37,2013-01-28 17:26:00,
2013-01-28 12:31:00,44.2,39.4,29.73,SW,225,15.0,15.0,83,0.00,CLR,,0.18,WeatherDisplay:10.37,2013-01-28 17:31:00,
2013-01-28 12:36:00,44.4,39.6,29.73,SW,225,15.0,15.0,83,0.00,CLR,,0.18,WeatherDisplay:10.37,2013-01-28 17:36:00,
2013-01-28 12:41:00,44.4,39.6,29.73,SW,225,13.8,13.8,83,0.00,CLR,,0.18,WeatherDisplay:10.37,2013-01-28 17:41:00,
2013-01-28 12:46:00,44.6,39.8,29.72,SW,225,13.8,13.8,83,0.00,CLR,,0.18,WeatherDisplay:10.37,2013-01-28 17:46:00,
2013-01-28 12:51:00,44.6,39.8,29.73,SW,225,15.0,15.0,83,0.00,CLR,,0.18,WeatherDisplay:10.37,2013-01-28 17:51:00,
2013-01-28 12:56:00,44.8,39.6,29.72,WSW,248,11.5,11.5,82,0.00,CLR,,0.18,WeatherDisplay:10.37,2013-01-28 17:56:00,
2013-01-28 13:01:00,44.8,39.6,29.72,SW,225,12.7,12.7,82,0.00,CLR,,0.18,WeatherDisplay:10.37,2013-01-28 18:01:00,
2013-01-28 13:06:00,44.8,39.6,29.72,SW,225,12.7,12.7,82,0.00,CLR,,0.18,WeatherDisplay:10.37,2013-01-28 18:06:00,
2013-01-28 13:11:00,45.0,40.1,29.72,West,270,12.7,12.7,83,0.00,CLR,,0.18,WeatherDisplay:10.37,2013-01-28 18:11:00,
2013-01-28 13:16:00,45.0,39.8,29.72,WSW,248,12.7,12.7,82,0.00,CLR,,0.18,WeatherDisplay:10.37,2013-01-28 18:16:00,
2013-01-28 13:21:00,44.8,39.6,29.73,SW,225,12.7,12.7,82,0.00,CLR,,0.18,WeatherDisplay:10.37,2013-01-28 18:21:00,
2013-01-28 13:26:00,44.8,39.6,29.73,SW,225,12.7,12.7,82,0.00,CLR,,0.18,WeatherDisplay:10.37,2013-01-28 18:26:00,
2013-01-28 13:31:00,44.8,39.6,29.73,SW,225,10.4,10.4,82,0.00,CLR,,0.18,WeatherDisplay:10.37,2013-01-28 18:31:00,
2013-01-28 13:36:00,44.8,39.6,29.73,WSW,248,11.5,11.5,82,0.00,CLR,,0.18,WeatherDisplay:10.37,2013-01-28 18:36:00,
2013-01-28 13:41:00,45.0,39.8,29.73,SW,225,12.7,12.7,82,0.00,CLR,,0.18,WeatherDisplay:10.37,2013-01-28 18:41:00,
2013-01-28 13:46:00,44.8,39.6,29.73,WNW,292,9.2,9.2,82,0.00,CLR,,0.18,WeatherDisplay:10.37,2013-01-28 18:46:00,
2013-01-28 13:51:00,44.8,39.9,29.73,SW,225,13.8,13.8,83,0.00,CLR,,0.18,WeatherDisplay:10.37,2013-01-28 18:51:00,
2013-01-28 13:56:00,45.0,40.1,29.73,West,270,10.4,10.4,83,0.00,CLR,,0.18,WeatherDisplay:10.37,2013-01-28 18:56:00,
2013-01-28 14:01:00,44.8,39.9,29.73,SW,225,10.4,10.4,83,0.00,CLR,,0.18,WeatherDisplay:10.37,2013-01-28 19:01:00,
2013-01-28 14:06:00,44.8,39.9,29.73,SW,225,8.1,8.1,83,0.00,CLR,,0.18,WeatherDisplay:10.37,2013-01-28 19:06:00,
2013-01-28 14:11:00,44.8,39.9,29.73,SSW,202,6.9,6.9,83,0.00,CLR,,0.18,WeatherDisplay:10.37,2013-01-28 19:11:00,
2013-01-28 14:16:00,44.6,39.8,29.73,SW,225,6.9,6.9,83,0.00,CLR,,0.18,WeatherDisplay:10.37,2013-01-28 19:16:00,
2013-01-28 14:21:00,45.0,40.4,29.73,SW,225,6.9,6.9,84,0.00,CLR,,0.18,WeatherDisplay:10.37,2013-01-28 19:21:00,
2013-01-28 14:26:00,44.4,39.9,29.73,NW,315,8.1,8.1,84,0.00,CLR,,0.18,WeatherDisplay:10.37,2013-01-28 19:26:00,
2013-01-28 14:31:00,44.6,40.1,29.73,West,270,5.8,5.8,84,0.00,CLR,,0.18,WeatherDisplay:10.37,2013-01-28 19:31:00,
2013-01-28 14:36:00,44.6,40.1,29.73,SW,225,6.9,6.9,84,0.00,CLR,,0.18,WeatherDisplay:10.37,2013-01-28 19:36:00,
2013-01-28 14:41:00,44.6,40.1,29.72,SW,225,8.1,8.1,84,0.00,CLR,,0.18,WeatherDisplay:10.37,2013-01-28 19:41:00,
2013-01-28 14:46:00,44.6,40.1,29.73,SW,225,8.1,8.1,84,0.00,CLR,,0.18,WeatherDisplay:10.37,2013-01-28 19:46:00,
2013-01-28 14:51:00,44.4,39.9,29.73,WNW,292,9.2,9.2,84,0.00,CLR,,0.18,WeatherDisplay:10.37,2013-01-28 19:51:00,
2013-01-28 14:56:00,44.2,39.7,29.74,West,270,8.1,8.1,84,0.00,CLR,,0.18,WeatherDisplay:10.37,2013-01-28 19:56:00,
2013-01-28 15:01:00,44.1,39.5,29.74,NW,315,5.8,5.8,84,0.00,CLR,,0.18,WeatherDisplay:10.37,2013-01-28 20:01:00,
2013-01-28 15:06:00,44.1,39.5,29.75,NW,315,5.8,5.8,84,0.00,CLR,,0.18,WeatherDisplay:10.37,2013-01-28 20:06:00,
2013-01-28 15:11:00,43.9,39.1,29.75,SW,225,8.1,8.1,83,0.00,CLR,,0.18,WeatherDisplay:10.37,2013-01-28 20:11:00,
2013-01-28 15:16:00,43.9,39.1,29.75,SW,225,15.0,15.0,83,0.00,CLR,,0.18,WeatherDisplay:10.37,2013-01-28 20:16:00,
2013-01-28 15:21:00,43.5,38.7,29.75,SW,225,17.3,17.3,83,0.00,CLR,,0.18,WeatherDisplay:10.37,2013-01-28 20:21:00,
2013-01-28 15:26:00,43.5,38.7,29.75,SW,225,15.0,15.0,83,0.00,CLR,,0.18,WeatherDisplay:10.37,2013-01-28 20:26:00,
2013-01-28 15:31:00,43.3,38.5,29.76,SW,225,19.6,19.6,83,0.00,CLR,,0.18,WeatherDisplay:10.37,2013-01-28 20:31:00,
2013-01-28 15:36:00,43.2,38.3,29.76,NW,315,12.7,12.7,83,0.00,CLR,,0.18,WeatherDisplay:10.37,2013-01-28 20:36:00,
2013-01-28 15:41:00,42.8,37.7,29.76,South,180,13.8,13.8,82,0.00,CLR,,0.18,WeatherDisplay:10.37,2013-01-28 20:41:00,
2013-01-28 15:46:00,42.8,37.7,29.77,SW,225,15.0,15.0,82,0.00,CLR,,0.18,WeatherDisplay:10.37,2013-01-28 20:46:00,
2013-01-28 15:51:00,42.8,37.7,29.77,SW,225,17.3,17.3,82,0.00,CLR,,0.18,WeatherDisplay:10.37,2013-01-28 20:51:00,
2013-01-28 15:56:00,42.8,37.4,29.77,West,270,11.5,11.5,81,0.00,CLR,,0.18,WeatherDisplay:10.37,2013-01-28 20:56:00,
2013-01-28 16:01:00,42.8,37.4,29.77,West,270,16.1,16.1,81,0.00,CLR,,0.18,WeatherDisplay:10.37,2013-01-28 21:01:00,
2013-01-28 16:06:00,42.8,37.4,29.77,West,270,16.1,16.1,81,0.00,CLR,,0.18,WeatherDisplay:10.37,2013-01-28 21:06:00,
2013-01-28 16:11:00,42.4,36.7,29.77,West,270,12.7,12.7,80,0.00,CLR,,0.18,WeatherDisplay:10.37,2013-01-28 21:11:00,
2013-01-28 16:16:00,42.3,36.2,29.78,South,180,12.7,12.7,79,0.00,CLR,,0.18,WeatherDisplay:10.37,2013-01-28 21:16:00,
2013-01-28 16:21:00,42.1,36.0,29.78,SW,225,15.0,15.0,79,0.00,CLR,,0.18,WeatherDisplay:10.37,2013-01-28 21:21:00,
2013-01-28 16:26:00,41.7,35.4,29.79,WNW,292,17.3,17.3,78,0.00,CLR,,0.18,WeatherDisplay:10.37,2013-01-28 21:26:00,
2013-01-28 16:31:00,41.7,35.0,29.78,South,180,13.8,13.8,77,0.00,CLR,,0.18,WeatherDisplay:10.37,2013-01-28 21:31:00,
2013-01-28 16:36:00,41.5,34.9,29.79,SE,135,10.4,10.4,77,0.00,CLR,,0.18,WeatherDisplay:10.37,2013-01-28 21:36:00,
2013-01-28 16:41:00,41.5,35.2,29.79,SW,225,8.1,8.1,78,0.00,CLR,,0.18,WeatherDisplay:10.37,2013-01-28 21:41:00,
2013-01-28 16:46:00,41.4,35.0,29.80,SW,225,8.1,8.1,78,0.00,CLR,,0.18,WeatherDisplay:10.37,2013-01-28 21:46:00,
2013-01-28 16:52:00,41.2,34.5,29.80,South,180,8.1,8.1,77,0.00,CLR,,0.18,WeatherDisplay:10.37,2013-01-28 21:52:00,
2013-01-28 16:57:00,41.0,34.7,29.80,South,180,8.1,8.1,78,0.00,CLR,,0.18,WeatherDisplay:10.37,2013-01-28 21:57:00,
2013-01-28 17:02:00,41.2,34.8,29.80,North,0,8.1,8.1,78,0.00,CLR,,0.18,WeatherDisplay:10.37,2013-01-28 22:02:00,
2013-01-28 17:07:00,41.2,34.8,29.81,North,0,8.1,8.1,78,0.00,CLR,,0.18,WeatherDisplay:10.37,2013-01-28 22:07:00,
2013-01-28 17:12:00,40.8,34.2,29.81,WNW,292,15.0,15.0,77,0.00,CLR,,0.18,WeatherDisplay:10.37,2013-01-28 22:12:00,
2013-01-28 17:17:00,40.5,33.8,29.81,West,270,9.2,9.2,77,0.00,CLR,,0.18,WeatherDisplay:10.37,2013-01-28 22:17:00,
2013-01-28 17:22:00,40.5,33.8,29.81,SE,135,6.9,6.9,77,0.00,CLR,,0.18,WeatherDisplay:10.37,2013-01-28 22:22:00,
2013-01-28 17:27:00,40.3,33.3,29.81,SW,225,12.7,12.7,76,0.00,CLR,,0.18,WeatherDisplay:10.37,2013-01-28 22:27:00,
2013-01-28 17:32:00,40.1,33.1,29.82,West,270,11.5,11.5,76,0.00,CLR,,0.18,WeatherDisplay:10.37,2013-01-28 22:32:00,
2013-01-28 17:37:00,39.9,33.0,29.82,SSE,158,5.8,6.9,76,0.00,CLR,,0.18,WeatherDisplay:10.37,2013-01-28 22:37:00,
2013-01-28 17:42:00,39.7,32.8,29.82,South,180,8.1,8.1,76,0.00,CLR,,0.18,WeatherDisplay:10.37,2013-01-28 22:42:00,
2013-01-28 17:47:00,39.6,32.6,29.82,SW,225,5.8,5.8,76,0.00,CLR,,0.18,WeatherDisplay:10.37,2013-01-28 22:47:00,
2013-01-28 17:52:00,39.6,32.9,29.83,SW,225,5.8,5.8,77,0.00,CLR,,0.18,WeatherDisplay:10.37,2013-01-28 22:52:00,
2013-01-28 17:57:00,39.6,32.9,29.83,South,180,4.6,4.6,77,0.00,CLR,,0.18,WeatherDisplay:10.37,2013-01-28 22:57:00,
2013-01-28 18:02:00,39.4,32.8,29.83,SE,135,3.5,3.5,77,0.00,CLR,,0.18,WeatherDisplay:10.37,2013-01-28 23:02:00,
2013-01-28 18:07:00,39.4,32.8,29.83,SE,135,3.5,3.5,77,0.00,CLR,,0.18,WeatherDisplay:10.37,2013-01-28 23:07:00,
2013-01-28 18:12:00,39.4,32.8,29.83,NW,315,3.5,3.8,77,0.00,CLR,,0.18,WeatherDisplay:10.37,2013-01-28 23:12:00,
2013-01-28 18:17:00,39.2,32.6,29.84,SW,225,5.8,5.8,77,0.00,CLR,,0.18,WeatherDisplay:10.37,2013-01-28 23:17:00,
2013-01-28 18:22:00,39.2,32.6,29.84,NW,315,8.1,8.1,77,0.00,CLR,,0.18,WeatherDisplay:10.37,2013-01-28 23:22:00,
2013-01-28 18:27:00,39.2,32.6,29.84,SW,225,5.8,5.8,77,0.00,CLR,,0.18,WeatherDisplay:10.37,2013-01-28 23:27:00,
2013-01-28 18:32:00,39.0,32.4,29.85,SSE,158,4.6,4.6,77,0.00,CLR,,0.18,WeatherDisplay:10.37,2013-01-28 23:32:00,
2013-01-28 18:37:00,39.2,32.6,29.85,WSW,248,4.6,4.6,77,0.00,CLR,,0.18,WeatherDisplay:10.37,2013-01-28 23:37:00,
2013-01-28 18:42:00,39.0,32.4,29.85,SW,225,5.8,5.8,77,0.00,CLR,,0.18,WeatherDisplay:10.37,2013-01-28 23:42:00,
2013-01-28 18:47:00,39.0,32.4,29.85,SSW,202,3.5,3.5,77,0.00,CLR,,0.18,WeatherDisplay:10.37,2013-01-28 23:47:00,
2013-01-28 18:52:00,38.8,32.2,29.85,NE,45,5.8,0.0,77,0.00,CLR,,0.18,WeatherDisplay:10.37,2013-01-28 23:52:00,
2013-01-28 18:57:00,38.8,32.2,29.85,SE,135,4.6,4.6,77,0.00,CLR,,0.18,WeatherDisplay:10.37,2013-01-28 23:57:00,
2013-01-28 19:02:00,38.8,32.2,29.86,SSW,202,3.5,3.5,77,0.00,CLR,,0.18,WeatherDisplay:10.37,2013-01-29 00:02:00,
2013-01-28 19:07:00,38.8,32.2,29.86,SSW,202,3.5,3.5,77,0.00,CLR,,0.18,WeatherDisplay:10.37,2013-01-29 00:07:00,
2013-01-28 19:12:00,38.5,31.9,29.86,WSW,248,5.8,5.8,77,0.00,CLR,,0.18,WeatherDisplay:10.37,2013-01-29 00:12:00,
2013-01-28 19:17:00,38.5,31.9,29.87,SW,225,12.1,12.1,77,0.00,CLR,,0.18,WeatherDisplay:10.37,2013-01-29 00:17:00,
2013-01-28 19:22:00,38.5,31.9,29.87,NNE,22,11.5,11.5,77,0.00,CLR,,0.18,WeatherDisplay:10.37,2013-01-29 00:22:00,
2013-01-28 19:27:00,38.7,31.7,29.87,NW,315,10.4,10.4,76,0.00,CLR,,0.18,WeatherDisplay:10.37,2013-01-29 00:27:00,
2013-01-28 19:32:00,38.7,31.4,29.87,NW,315,6.9,6.9,75,0.00,CLR,,0.18,WeatherDisplay:10.37,2013-01-29 00:32:00,
2013-01-28 19:37:00,38.5,31.2,29.87,South,180,6.9,6.9,75,0.00,CLR,,0.18,WeatherDisplay:10.37,2013-01-29 00:37:00,
2013-01-28 19:42:00,38.5,30.9,29.88,SW,225,5.8,5.8,74,0.00,CLR,,0.18,WeatherDisplay:10.37,2013-01-29 00:42:00,
2013-01-28 19:47:00,38.3,30.7,29.88,North,0,5.8,5.8,74,0.00,CLR,,0.18,WeatherDisplay:10.37,2013-01-29 00:47:00,
2013-01-28 19:52:00,38.3,30.7,29.88,NW,315,3.5,0.0,74,0.00,CLR,,0.18,WeatherDisplay:10.37,2013-01-29 00:52:00,
2013-01-28 19:57:00,38.1,30.9,29.88,South,180,2.3,2.3,75,0.00,CLR,,0.18,WeatherDisplay:10.37,2013-01-29 00:57:00,
2013-01-28 20:02:00,38.1,30.9,29.88,North,0,1.2,0.0,75,0.00,CLR,,0.18,WeatherDisplay:10.37,2013-01-29 01:02:00,
2013-01-28 20:07:00,38.1,30.9,29.89,North,0,1.2,0.0,75,0.00,CLR,,0.18,WeatherDisplay:10.37,2013-01-29 01:07:00,
2013-01-28 20:12:00,37.9,30.4,29.88,East,90,8.1,8.1,74,0.00,CLR,,0.18,WeatherDisplay:10.37,2013-01-29 01:12:00,
2013-01-28 20:17:00,37.9,30.4,29.88,SW,225,5.8,5.8,74,0.00,CLR,,0.18,WeatherDisplay:10.37,2013-01-29 01:17:00,
2013-01-28 20:22:00,37.9,30.4,29.88,SW,225,3.5,3.5,74,0.00,CLR,,0.18,WeatherDisplay:10.37,2013-01-29 01:22:00,
2013-01-28 20:27:00,37.9,30.4,29.88,South,180,5.8,5.8,74,0.00,CLR,,0.18,WeatherDisplay:10.37,2013-01-29 01:27:00,
2013-01-28 20:32:00,37.8,30.2,29.88,North,10,10.4,10.4,74,0.00,CLR,,0.18,WeatherDisplay:10.37,2013-01-29 01:32:00,
2013-01-28 20:37:00,37.8,30.2,29.88,SW,225,3.5,3.5,74,0.00,CLR,,0.18,WeatherDisplay:10.37,2013-01-29 01:37:00,
2013-01-28 20:42:00,37.6,30.0,29.88,SW,225,3.5,3.5,74,0.00,CLR,,0.18,WeatherDisplay:10.37,2013-01-29 01:42:00,
2013-01-28 20:47:00,37.4,29.9,29.88,SW,225,3.5,3.5,74,0.00,CLR,,0.18,WeatherDisplay:10.37,2013-01-29 01:47:00,
2013-01-28 20:52:00,37.2,29.7,29.87,SW,225,2.3,2.3,74,0.00,CLR,,0.18,WeatherDisplay:10.37,2013-01-29 01:52:00,
2013-01-28 20:57:00,37.0,29.5,29.88,SW,225,2.3,0.0,74,0.00,CLR,,0.18,WeatherDisplay:10.37,2013-01-29 01:57:00,
2013-01-28 21:02:00,36.9,29.3,29.88,SW,225,2.3,2.3,74,0.00,CLR,,0.18,WeatherDisplay:10.37,2013-01-29 02:02:00,
2013-01-28 21:07:00,36.9,29.3,29.88,SW,225,2.3,2.3,74,0.00,CLR,,0.18,WeatherDisplay:10.37,2013-01-29 02:07:00,
2013-01-28 21:12:00,36.7,29.2,29.89,SW,225,3.5,3.5,74,0.00,CLR,,0.18,WeatherDisplay:10.37,2013-01-29 02:12:00,
2013-01-28 21:17:00,36.7,29.2,29.89,SW,225,2.3,2.3,74,0.00,CLR,,0.18,WeatherDisplay:10.37,2013-01-29 02:17:00,
2013-01-28 21:22:00,36.7,29.2,29.89,SW,225,2.3,2.3,74,0.00,CLR,,0.18,WeatherDisplay:10.37,2013-01-29 02:22:00,
2013-01-28 21:27:00,36.5,29.0,29.90,SW,225,2.3,2.3,74,0.00,CLR,,0.18,WeatherDisplay:10.37,2013-01-29 02:27:00,
2013-01-28 21:32:00,36.5,29.0,29.89,West,270,1.2,0.0,74,0.00,CLR,,0.18,WeatherDisplay:10.37,2013-01-29 02:32:00,
2013-01-28 21:37:00,36.5,29.3,29.89,SW,225,2.3,2.3,75,0.00,CLR,,0.18,WeatherDisplay:10.37,2013-01-29 02:37:00,
2013-01-28 21:42:00,36.5,29.3,29.88,NW,315,1.2,0.0,75,0.00,CLR,,0.18,WeatherDisplay:10.37,2013-01-29 02:42:00,
2013-01-28 21:47:00,36.5,29.0,29.88,West,270,0.0,0.0,74,0.00,CLR,,0.18,WeatherDisplay:10.37,2013-01-29 02:47:00,
2013-01-28 21:52:00,36.5,29.3,29.89,North,0,0.0,0.0,75,0.00,CLR,,0.18,WeatherDisplay:10.37,2013-01-29 02:52:00,
2013-01-28 21:57:00,36.7,29.5,29.89,SW,225,2.3,0.0,75,0.00,CLR,,0.18,WeatherDisplay:10.37,2013-01-29 02:57:00,
2013-01-28 22:02:00,36.7,29.5,29.89,SW,225,3.5,3.5,75,0.00,CLR,,0.18,WeatherDisplay:10.37,2013-01-29 03:02:00,
2013-01-28 22:07:00,36.7,29.5,29.90,SW,225,3.5,3.5,75,0.00,CLR,,0.18,WeatherDisplay:10.37,2013-01-29 03:07:00,
2013-01-28 22:12:00,36.5,29.3,29.89,SW,225,0.0,0.0,75,0.00,CLR,,0.18,WeatherDisplay:10.37,2013-01-29 03:12:00,
2013-01-28 22:17:00,36.3,29.2,29.88,SW,225,1.2,0.0,75,0.00,CLR,,0.18,WeatherDisplay:10.37,2013-01-29 03:17:00,
2013-01-28 22:22:00,36.5,29.3,29.89,SW,225,3.5,3.5,75,0.00,CLR,,0.18,WeatherDisplay:10.37,2013-01-29 03:22:00,
2013-01-28 22:27:00,36.5,29.3,29.88,SW,225,2.3,2.3,75,0.00,CLR,,0.18,WeatherDisplay:10.37,2013-01-29 03:27:00,
2013-01-28 22:32:00,36.3,29.2,29.88,SW,225,1.2,0.0,75,0.00,CLR,,0.18,WeatherDisplay:10.37,2013-01-29 03:32:00,
2013-01-28 22:37:00,36.3,29.2,29.88,SW,225,2.3,2.3,75,0.00,CLR,,0.18,WeatherDisplay:10.37,2013-01-29 03:37:00,
2013-01-28 22:42:00,36.3,29.2,29.89,West,270,1.2,1.2,75,0.00,CLR,,0.18,WeatherDisplay:10.37,2013-01-29 03:42:00,
2013-01-28 22:47:00,36.3,29.2,29.89,SW,225,3.5,3.5,75,0.00,CLR,,0.18,WeatherDisplay:10.37,2013-01-29 03:47:00,
2013-01-28 22:52:00,36.3,29.2,29.89,SW,225,3.5,3.5,75,0.00,CLR,,0.18,WeatherDisplay:10.37,2013-01-29 03:52:00,
2013-01-28 22:57:00,36.1,29.0,29.89,South,180,3.5,3.5,75,0.00,CLR,,0.18,WeatherDisplay:10.37,2013-01-29 03:57:00,
2013-01-28 23:03:00,36.3,29.2,29.88,SW,225,1.2,0.0,75,0.00,CLR,,0.18,WeatherDisplay:10.37,2013-01-29 04:03:00,
2013-01-28 23:08:00,36.1,29.0,29.88,East,90,1.2,0.0,75,0.00,CLR,,0.18,WeatherDisplay:10.37,2013-01-29 04:08:00,
2013-01-28 23:13:00,36.1,29.0,29.89,South,180,1.2,0.0,75,0.00,CLR,,0.18,WeatherDisplay:10.37,2013-01-29 04:13:00,
2013-01-28 23:18:00,36.0,28.8,29.88,South,180,0.0,0.0,75,0.00,CLR,,0.18,WeatherDisplay:10.37,2013-01-29 04:18:00,
2013-01-28 23:23:00,36.0,28.8,29.88,West,270,2.3,0.0,75,0.00,CLR,,0.18,WeatherDisplay:10.37,2013-01-29 04:23:00,
2013-01-28 23:28:00,35.8,28.6,29.88,East,90,0.0,0.0,75,0.00,CLR,,0.18,WeatherDisplay:10.37,2013-01-29 04:28:00,
2013-01-28 23:33:00,35.6,28.5,29.89,South,180,1.2,1.2,75,0.00,CLR,,0.18,WeatherDisplay:10.37,2013-01-29 04:33:00,
2013-01-28 23:38:00,35.6,28.5,29.89,SW,225,2.3,2.3,75,0.00,CLR,,0.18,WeatherDisplay:10.37,2013-01-29 04:38:00,
2013-01-28 23:43:00,35.4,28.3,29.89,South,180,2.3,2.3,75,0.00,CLR,,0.18,WeatherDisplay:10.37,2013-01-29 04:43:00,
2013-01-28 23:48:00,35.4,28.3,29.89,SW,225,3.5,3.5,75,0.00,CLR,,0.18,WeatherDisplay:10.37,2013-01-29 04:48:00,
2013-01-28 23:53:00,35.4,28.3,29.89,South,180,1.2,1.2,75,0.00,CLR,,0.18,WeatherDisplay:10.37,2013-01-29 04:53:00,
2013-01-28 23:58:00,35.2,28.1,29.88,South,180,1.2,0.0,75,0.00,CLR,,0.18,WeatherDisplay:10.37,2013-01-29 04:58:00,